ADDS METAR Data INFO
IDs: Format: Raw Decoded Include TAF

Data at: 0058 UTC 21 Oct 2017

KCNC 210055Z AUTO 16015KT 10SM CLR 18/11 A2987 RMK AO2
KCNC 210035Z AUTO 16013G18KT 10SM CLR 18/11 A2987 RMK AO2
KCNC 210015Z AUTO 16012G19KT 10SM CLR 19/11 A2988 RMK AO2
KCNC 202355Z AUTO 17011KT 10SM CLR 19/12 A2988 RMK AO2
KCNC 202335Z AUTO 16010G19KT 10SM CLR 19/12 A2987 RMK AO2
KCNC 202315Z AUTO 17014G20KT 10SM CLR 20/12 A2987 RMK AO2
KCNC 202255Z AUTO 16013G20KT 10SM CLR 20/11 A2987 RMK AO2
KCNC 202235Z AUTO 16013KT 10SM CLR 20/11 A2988 RMK AO2
KCNC 202215Z AUTO 16014G19KT 10SM CLR 20/11 A2988 RMK AO2
KCNC 202155Z AUTO 17013KT 10SM CLR 21/11 A2988 RMK AO2
KCNC 202135Z AUTO 17014G22KT 10SM CLR 21/10 A2989 RMK AO2
KCNC 202115Z AUTO 17017G24KT 10SM CLR 22/10 A2990 RMK AO2
KCNC 202055Z AUTO 17017G24KT 10SM CLR 22/10 A2990 RMK AO2
KCNC 202035Z AUTO 16014G24KT 10SM CLR 22/11 A2990 RMK AO2
KCNC 202015Z AUTO 16012G23KT 10SM CLR 23/11 A2991 RMK AO2
KCNC 201955Z AUTO 17015G25KT 10SM CLR 23/11 A2993 RMK AO2
KCNC 201935Z AUTO 18022KT 10SM CLR 23/11 A2993 RMK AO2
KCNC 201915Z AUTO 18019KT 10SM CLR 23/12 A2995 RMK AO2
KCNC 201855Z AUTO 19017G22KT 10SM CLR 23/12 A2996 RMK AO2
KCNC 201835Z AUTO 19018KT 10SM CLR 23/12 A2997 RMK AO2
KCNC 201815Z AUTO 16011G19KT 10SM CLR 22/12 A2998 RMK AO2
KCNC 201755Z AUTO 19011KT 10SM CLR 22/12 A2999 RMK AO2
KCNC 201735Z AUTO 18012G17KT 10SM CLR 21/12 A3000 RMK AO2
KCNC 201715Z AUTO 18015KT 10SM CLR 20/12 A3001 RMK AO2
KCNC 201655Z AUTO 18014G19KT 10SM CLR 21/12 A3002 RMK AO2
KCNC 201635Z AUTO 18014G19KT 10SM CLR 21/12 A3003 RMK AO2
KCNC 201615Z AUTO 20012KT 10SM CLR 19/12 A3004 RMK AO2
KCNC 201555Z AUTO 19014KT 10SM CLR 19/12 A3004 RMK AO2
KCNC 201535Z AUTO 20012G18KT 10SM CLR 18/12 A3005 RMK AO2
KCNC 201515Z AUTO 20013KT 10SM CLR 18/12 A3006 RMK AO2
KCNC 201455Z AUTO 19010G16KT 10SM CLR 17/12 A3006 RMK AO2
KCNC 201435Z AUTO 18010KT 10SM CLR 16/12 A3006 RMK AO2
KCNC 201415Z AUTO 17009KT 10SM CLR 15/11 A3007 RMK AO2
KCNC 201355Z AUTO 17009KT 10SM CLR 14/11 A3006 RMK AO2
KCNC 201335Z AUTO 17008KT 10SM CLR 13/11 A3007 RMK AO2
KCNC 201315Z AUTO 16006KT 12/10 A3007 RMK AO2
KCNC 201255Z AUTO 18007KT 10SM CLR 12/10 A3006 RMK AO2
KCNC 201235Z AUTO 20008KT 10SM CLR 12/10 A3006 RMK AO2
KCNC 201215Z AUTO 19007KT 10SM CLR 12/10 A3007 RMK AO2
KCNC 201155Z AUTO 19008KT 10SM CLR 12/10 A3007 RMK AO2
KCNC 201135Z AUTO 20007KT 10SM CLR 13/10 A3007 RMK AO2
KCNC 201115Z AUTO 20007KT 10SM CLR 13/10 A3007 RMK AO2
KCNC 201055Z AUTO 19007KT 10SM CLR 12/10 A3007 RMK AO2
KCNC 201035Z AUTO 20007KT 10SM CLR 12/10 A3006 RMK AO2
KCNC 201015Z AUTO 19007KT 10SM CLR 12/10 A3006 RMK AO2
KCNC 200955Z AUTO 19006KT 10SM CLR 12/10 A3006 RMK AO2
KCNC 200935Z AUTO 19007KT 10SM CLR 12/10 A3006 RMK AO2
KCNC 200915Z AUTO 19007KT 10SM CLR 13/10 A3006 RMK AO2
KCNC 200855Z AUTO 20007KT 10SM CLR 13/10 A3006 RMK AO2
KCNC 200835Z AUTO 20006KT 10SM CLR 13/11 A3006 RMK AO2
KCNC 200815Z AUTO 20008KT 10SM CLR 14/11 A3006 RMK AO2
KCNC 200755Z AUTO 20007KT 10SM CLR 14/11 A3006 RMK AO2
KCNC 200735Z AUTO 20008KT 10SM CLR 14/11 A3006 RMK AO2
KCNC 200715Z AUTO 20008KT 10SM CLR 14/11 A3005 RMK AO2
KCNC 200655Z AUTO 20009KT 10SM CLR 14/11 A3005 RMK AO2
KCNC 200635Z AUTO 20007KT 10SM CLR 14/11 A3005 RMK AO2
KCNC 200615Z AUTO 20007KT 10SM CLR 15/11 A3005 RMK AO2
KCNC 200555Z AUTO 19009KT 10SM CLR 16/11 A3005 RMK AO2
KCNC 200535Z AUTO 19007KT 10SM CLR 16/11 A3005 RMK AO2
KCNC 200515Z AUTO 19008KT 10SM CLR 16/11 A3005 RMK AO2
KCNC 200455Z AUTO 18007KT 10SM CLR 16/11 A3005 RMK AO2
KCNC 200435Z AUTO 17008KT 10SM CLR 15/11 A3005 RMK AO2
KCNC 200415Z AUTO 17007KT 10SM CLR 15/11 A3005 RMK AO2
KCNC 200355Z AUTO 17007KT 10SM CLR 15/11 A3005 RMK AO2
KCNC 200335Z AUTO 17007KT CLR 15/11 A3005 RMK AO2
KCNC 200315Z AUTO 17007KT 10SM CLR 15/11 A3005 RMK AO2
KCNC 200255Z AUTO 16005KT 10SM CLR 14/11 A3005 RMK AO2
KCNC 200235Z AUTO 15006KT 10SM CLR 15/11 A3005 RMK AO2
KCNC 200215Z AUTO 14006KT 10SM CLR 15/11 A3004 RMK AO2
KCNC 200155Z AUTO 15006KT 10SM CLR 16/11 A3005 RMK AO2
KCNC 200135Z AUTO 15006KT 10SM CLR 16/11 A3005 RMK AO2
KCNC 200115Z AUTO 14005KT 10SM CLR 16/12 A3005 RMK AO2
KCNC 200055Z AUTO 15006KT 10SM CLR 17/12 A3005 RMK AO2
KCNC 200035Z AUTO 15007KT 10SM CLR 18/12 A3005 RMK AO2
KCNC 200015Z AUTO 16006KT 10SM CLR 19/12 A3005 RMK AO2
KCNC 192355Z AUTO 16007KT 10SM CLR 19/12 A3005 RMK AO2
KCNC 192335Z AUTO 17006KT 10SM CLR 20/13 A3005 RMK AO2
KCNC 192315Z AUTO 17007KT 10SM CLR 21/13 A3005 RMK AO2
KCNC 192255Z AUTO 17010KT 10SM CLR 23/13 A3005 RMK AO2
KCNC 192235Z AUTO 17011KT 10SM CLR 23/12 A3004 RMK AO2
KCNC 192215Z AUTO 17010KT 10SM CLR 24/12 A3004 RMK AO2
KCNC 192155Z AUTO 17010KT 10SM CLR 24/12 A3004 RMK AO2
KCNC 192135Z AUTO 16009KT 10SM CLR 25/13 A3004 RMK AO2
KCNC 192115Z AUTO 16008KT 10SM CLR 25/12 A3005 RMK AO2
KCNC 192055Z AUTO 16010KT 10SM CLR 25/12 A3005 RMK AO2
KCNC 192035Z AUTO 16009KT 10SM CLR 25/12 A3005 RMK AO2
KCNC 192015Z AUTO 14011KT 10SM CLR 24/12 A3006 RMK AO2
KCNC 191955Z AUTO 14007G14KT 10SM CLR 24/12 A3006 RMK AO2
KCNC 191935Z AUTO 14007KT 10SM CLR 24/12 A3007 RMK AO2
KCNC 191915Z AUTO 13009KT 10SM CLR 23/12 A3008 RMK AO2
KCNC 191855Z AUTO 13006G12KT 10SM CLR 23/12 A3008 RMK AO2
KCNC 191835Z AUTO 16008KT 10SM CLR 23/12 A3009 RMK AO2
KCNC 191815Z AUTO 14009KT 10SM CLR 22/12 A3010 RMK AO2
KCNC 191755Z AUTO VRB06G13KT 10SM CLR 22/11 A3011 RMK AO2
KCNC 191735Z AUTO 14008KT 10SM CLR 21/11 A3011 RMK AO2
KCNC 191715Z AUTO 14007KT 10SM CLR 21/11 A3012 RMK AO2
KCNC 191655Z AUTO 14007G14KT 10SM CLR 20/10 A3013 RMK AO2
KCNC 191635Z AUTO 13007KT 10SM CLR 19/09 A3013 RMK AO2
KCNC 191615Z AUTO 10008KT 10SM CLR 19/09 A3013 RMK AO2
KCNC 191555Z AUTO 12009KT 10SM CLR 18/08 A3013 RMK AO2
KCNC 191535Z AUTO 12010KT 10SM CLR 17/07 A3014 RMK AO2
KCNC 191515Z AUTO 11010KT 10SM CLR 16/05 A3013 RMK AO2
KCNC 191455Z AUTO 12009KT CLR 15/05 A3013 RMK AO2
KCNC 191435Z AUTO 12008KT 10SM CLR 14/05 A3013 RMK AO2
KCNC 191415Z AUTO 10008KT 10SM CLR 13/06 A3013 RMK AO2
KCNC 191355Z AUTO 10007KT 10SM CLR 12/07 A3013 RMK AO2
KCNC 191335Z AUTO 09009KT 10SM CLR 12/07 A3012 RMK AO2
KCNC 191315Z AUTO 08007KT 10SM CLR 11/07 A3011 RMK AO2